TimePDT,TemperatureF,Dew PointF,Humidity,Sea Level PressureIn,VisibilityMPH,Wind Direction,Wind SpeedMPH,Gust SpeedMPH,PrecipitationIn,Events,Conditions,WindDirDegrees,DateUTC
1:51 AM,64.9,46.0,50,30.05,10.0,East,3.5,-,N/A,,Clear,90,2013-03-14 08:51:00
2:51 AM,63.0,45.0,52,30.05,10.0,Calm,Calm,-,N/A,,Clear,0,2013-03-14 09:51:00
3:51 AM,61.0,44.1,54,30.04,10.0,Calm,Calm,-,N/A,,Clear,0,2013-03-14 10:51:00
4:51 AM,59.0,42.1,53,30.04,10.0,Calm,Calm,-,N/A,,Clear,0,2013-03-14 11:51:00
5:51 AM,57.0,43.0,59,30.04,10.0,Calm,Calm,-,N/A,,Clear,0,2013-03-14 12:51:00
6:51 AM,57.9,41.0,53,30.05,10.0,Calm,Calm,-,N/A,,Clear,0,2013-03-14 13:51:00
7:51 AM,59.0,42.1,53,30.06,10.0,Calm,Calm,-,N/A,,Clear,0,2013-03-14 14:51:00
8:51 AM,66.0,44.1,45,30.07,10.0,Calm,Calm,-,N/A,,Clear,0,2013-03-14 15:51:00
9:51 AM,73.0,43.0,34,30.07,10.0,Calm,Calm,-,N/A,,Clear,0,2013-03-14 16:51:00
10:51 AM,79.0,41.0,26,30.06,10.0,Calm,Calm,-,N/A,,Clear,0,2013-03-14 17:51:00
11:51 AM,88.0,34.0,15,30.05,10.0,Calm,Calm,-,N/A,,Clear,0,2013-03-14 18:51:00
12:51 PM,91.9,36.0,14,30.03,10.0,Calm,Calm,-,N/A,,Clear,0,2013-03-14 19:51:00
1:51 PM,93.0,35.1,13,30.01,10.0,Variable,3.5,-,N/A,,Clear,0,2013-03-14 20:51:00
2:51 PM,96.1,33.1,11,29.99,10.0,SE,6.9,-,N/A,,Clear,140,2013-03-14 21:51:00
3:51 PM,91.9,37.0,15,29.98,10.0,WNW,9.2,-,N/A,,Clear,300,2013-03-14 22:51:00
4:51 PM,91.9,34.0,13,29.97,10.0,Variable,6.9,-,N/A,,Clear,0,2013-03-14 23:51:00
5:51 PM,88.0,35.1,15,29.98,10.0,WNW,4.6,-,N/A,,Clear,290,2013-03-15 00:51:00
6:51 PM,82.9,28.0,14,29.98,10.0,WNW,4.6,-,N/A,,Clear,290,2013-03-15 01:51:00
7:51 PM,80.1,30.9,17,29.99,10.0,WSW,4.6,-,N/A,,Clear,250,2013-03-15 02:51:00
8:51 PM,77.0,34.0,21,29.99,10.0,Calm,Calm,-,N/A,,Clear,0,2013-03-15 03:51:00
9:51 PM,73.9,39.0,28,30.00,10.0,WNW,4.6,-,N/A,,Clear,300,2013-03-15 04:51:00
10:51 PM,70.0,41.0,35,30.00,10.0,Calm,Calm,-,N/A,,Clear,0,2013-03-15 05:51:00
11:51 PM,68.0,48.9,50,30.01,10.0,East,6.9,-,N/A,,Clear,90,2013-03-15 06:51:00